Time;durP1;ratioP1;P1;durP2;ratioP2;P2;SDS_P1;SDS_P2;PMS_P1;PMS_P2;Temp;Humidity;BMP_temperature;BMP_pressure;BME280_temperature;BME280_humidity;BME280_pressure;Samples;Min_cycle;Max_cycle;Signal;HPM_P1;HPM_P2
2022/03/03 00:02:23;;;;;;;26.00;15.73;;;;;;;4.57;52.25;101011.00;5167427;27;20694;-62
2022/03/03 00:05:18;;;;;;;27.00;14.87;;;;;;;4.49;52.63;101008.00;5165825;27;20211;-61
2022/03/03 00:07:46;;;;;;;30.93;15.20;;;;;;;4.51;52.58;101006.97;5162833;27;20344;-63
2022/03/03 00:10:13;;;;;;;27.20;16.73;;;;;;;4.44;53.09;101005.66;5165606;27;20704;-63
2022/03/03 00:12:41;;;;;;;28.37;15.80;;;;;;;4.45;52.76;100999.47;5167706;27;20599;-63
2022/03/03 00:15:10;;;;;;;30.73;16.47;;;;;;;4.48;52.97;101007.19;5165756;27;20285;-63
2022/03/03 00:17:55;;;;;;;26.87;15.13;;;;;;;4.49;53.48;101006.22;5166156;27;20219;-62
2022/03/03 00:20:39;;;;;;;27.47;15.33;;;;;;;4.36;53.54;101004.47;5169692;27;20310;-62
2022/03/03 00:23:06;;;;;;;28.63;15.13;;;;;;;4.39;53.49;101010.38;5165569;27;20290;-62
2022/03/03 00:25:34;;;;;;;26.53;16.33;;;;;;;4.38;53.63;101006.06;5165050;27;20307;-62
2022/03/03 00:28:03;;;;;;;29.07;15.20;;;;;;;4.39;53.81;101007.75;5169981;27;20570;-62
2022/03/03 00:30:31;;;;;;;30.37;16.63;;;;;;;4.33;53.58;101008.09;5164409;27;20217;-62
2022/03/03 00:32:59;;;;;;;28.70;14.17;;;;;;;4.35;53.35;101005.41;5162050;27;20225;-62
2022/03/03 00:35:28;;;;;;;26.27;15.57;;;;;;;4.16;54.09;101010.94;5168407;27;20292;-62
2022/03/03 00:37:58;;;;;;;29.00;15.97;;;;;;;4.28;53.69;101014.59;5166340;27;20298;-62
2022/03/03 00:40:26;;;;;;;27.53;15.67;;;;;;;4.32;53.31;101009.03;5165842;27;20217;-62
2022/03/03 00:42:54;;;;;;;25.70;15.40;;;;;;;4.32;53.35;101011.66;5165795;27;20226;-61
2022/03/03 00:45:22;;;;;;;29.03;16.40;;;;;;;4.29;53.24;101001.38;5166373;27;20313;-62
2022/03/03 00:47:53;;;;;;;29.80;16.17;;;;;;;4.24;53.44;100992.09;5166717;27;20309;-62
2022/03/03 00:50:34;;;;;;;24.03;14.53;;;;;;;4.18;53.37;101003.81;5169210;27;20309;-62
2022/03/03 00:53:03;;;;;;;26.20;15.37;;;;;;;4.27;52.91;101007.66;5165453;27;20416;-61
2022/03/03 00:55:31;;;;;;;32.17;15.93;;;;;;;4.17;53.52;101012.63;5165043;27;20210;-62
2022/03/03 00:57:58;;;;;;;26.67;15.27;;;;;;;4.28;52.95;101017.22;5168133;27;20289;-61
2022/03/03 01:00:26;;;;;;;27.53;15.63;;;;;;;4.22;53.13;101015.81;5164667;27;20232;-61
2022/03/03 01:02:54;;;;;;;30.40;15.37;;;;;;;4.24;53.04;101013.09;5164108;27;20218;-62
2022/03/03 01:05:22;;;;;;;31.47;15.20;;;;;;;4.14;53.53;101020.69;5160917;27;20296;-62
2022/03/03 01:07:50;;;;;;;27.00;14.17;;;;;;;4.28;52.98;101018.06;5165362;27;20527;-62
2022/03/03 01:10:23;;;;;;;24.00;14.40;;;;;;;4.23;53.19;101014.00;5166864;27;20239;-62
2022/03/03 01:12:51;;;;;;;30.00;15.50;;;;;;;4.30;52.96;101010.94;5167667;27;20204;-61
2022/03/03 01:15:19;;;;;;;30.13;14.17;;;;;;;4.21;53.15;101015.91;5164535;27;20211;-62
2022/03/03 01:17:46;;;;;;;25.80;14.67;;;;;;;4.24;52.70;101008.69;5163426;27;20247;-61
2022/03/03 01:20:14;;;;;;;26.37;13.87;;;;;;;4.30;52.90;101004.84;5164901;27;20242;-62
2022/03/03 01:22:55;;;;;;;25.07;13.27;;;;;;;4.29;52.68;101005.78;5165986;27;20277;-60
2022/03/03 01:25:24;;;;;;;26.43;13.90;;;;;;;4.24;52.80;100997.31;5167294;27;20234;-62
2022/03/03 01:28:03;;;;;;;26.37;14.23;;;;;;;4.17;52.64;100994.25;5168590;27;20254;-62
2022/03/03 01:30:40;;;;;;;27.67;13.07;;;;;;;4.23;52.81;100993.84;5166546;27;20315;-60
2022/03/03 01:33:08;;;;;;;24.93;13.23;;;;;;;4.15;53.53;100991.72;5162779;27;20218;-61
2022/03/03 01:35:36;;;;;;;24.93;14.70;;;;;;;4.28;52.62;100985.72;5164384;27;20209;-61
2022/03/03 01:38:07;;;;;;;24.30;13.30;;;;;;;4.23;52.83;100990.38;5162491;27;20300;-62
2022/03/03 01:40:39;;;;;;;25.03;13.90;;;;;;;4.13;53.02;100984.91;5166336;27;20231;-62
2022/03/03 01:43:07;;;;;;;23.63;13.13;;;;;;;4.24;52.82;100986.81;5167713;27;20240;-63
2022/03/03 01:45:48;;;;;;;24.63;13.50;;;;;;;4.26;52.90;100984.97;5164688;27;20296;-61
2022/03/03 01:48:18;;;;;;;24.63;13.77;;;;;;;4.21;52.94;100987.03;5160627;27;20606;-61
2022/03/03 01:50:46;;;;;;;26.80;13.97;;;;;;;4.24;52.93;100966.66;5168405;27;20226;-61
2022/03/03 01:53:24;;;;;;;25.83;12.67;;;;;;;4.25;52.89;100967.53;5164350;27;20671;-62
2022/03/03 01:55:55;;;;;;;26.63;14.03;;;;;;;4.26;52.91;100963.97;5164587;27;20647;-63
2022/03/03 01:58:23;;;;;;;25.67;14.23;;;;;;;4.17;53.20;100954.88;5168905;27;20243;-63
2022/03/03 02:00:52;;;;;;;26.90;12.83;;;;;;;4.22;52.96;100957.22;5166194;27;20590;-62
2022/03/03 02:03:20;;;;;;;23.00;13.07;;;;;;;4.16;52.84;100947.94;5162028;27;20210;-62
2022/03/03 02:05:49;;;;;;;22.63;13.50;;;;;;;3.97;53.42;100950.00;5162084;27;20309;-62
2022/03/03 02:08:20;;;;;;;25.77;12.73;;;;;;;4.13;53.08;100951.59;5163140;27;20231;-61
2022/03/03 02:10:47;;;;;;;22.57;12.93;;;;;;;4.12;53.11;100938.59;5163118;27;20297;-62
2022/03/03 02:13:16;;;;;;;22.57;12.13;;;;;;;4.10;53.33;100941.28;5167501;27;20206;-62
2022/03/03 02:15:53;;;;;;;24.20;13.97;;;;;;;4.13;53.05;100948.97;5162350;27;20256;-62
2022/03/03 02:18:22;;;;;;;25.70;14.03;;;;;;;4.10;53.14;100943.91;5159461;27;20300;-62
2022/03/03 02:20:59;;;;;;;24.90;13.43;;;;;;;3.95;53.62;100942.25;5162665;27;20204;-62
2022/03/03 02:23:26;;;;;;;25.77;13.40;;;;;;;4.05;53.26;100943.34;5163521;27;20310;-62
2022/03/03 02:25:54;;;;;;;24.20;12.67;;;;;;;4.04;53.26;100946.09;5164040;27;20333;-62
2022/03/03 02:28:22;;;;;;;25.67;13.13;;;;;;;3.96;53.77;100940.47;5170418;27;20296;-62
2022/03/03 02:30:50;;;;;;;22.73;13.30;;;;;;;3.95;53.37;100938.78;5161954;27;20300;-62
2022/03/03 02:33:17;;;;;;;25.83;13.87;;;;;;;3.96;53.61;100936.03;5163941;27;20213;-61
2022/03/03 02:35:46;;;;;;;26.10;13.27;;;;;;;3.93;53.18;100936.25;5172065;27;20469;-62
2022/03/03 02:38:15;;;;;;;25.40;13.70;;;;;;;3.91;53.32;100935.50;5169271;27;20248;-62
2022/03/03 02:40:43;;;;;;;23.70;13.07;;;;;;;3.98;53.41;100934.16;5168597;27;20297;-62
2022/03/03 02:43:11;;;;;;;21.10;12.33;;;;;;;3.99;53.05;100935.88;5167475;27;20326;-62
2022/03/03 02:45:39;;;;;;;27.40;14.40;;;;;;;3.88;53.24;100930.44;5167709;27;20590;-62
2022/03/03 02:48:07;;;;;;;27.53;13.67;;;;;;;3.93;53.36;100940.66;5170851;27;20602;-62
2022/03/03 02:50:35;;;;;;;25.57;13.57;;;;;;;3.96;53.50;100935.22;5170081;27;20300;-62
2022/03/03 02:53:02;;;;;;;25.70;11.63;;;;;;;3.86;53.89;100934.09;5164795;27;20297;-62
2022/03/03 02:55:31;;;;;;;22.13;12.73;;;;;;;3.93;53.22;100924.91;5169431;27;20210;-62
2022/03/03 02:57:59;;;;;;;24.87;13.00;;;;;;;3.83;53.69;100919.38;5163136;27;20217;-63
2022/03/03 03:00:31;;;;;;;24.03;13.40;;;;;;;3.39;55.19;100924.69;5164061;27;20207;-63
2022/03/03 03:02:59;;;;;;;26.87;13.20;;;;;;;3.19;56.03;100917.16;5168697;27;20542;-62
2022/03/03 03:05:26;;;;;;;24.33;12.70;;;;;;;3.45;55.45;100915.59;5169196;27;20566;-62
2022/03/03 03:07:57;;;;;;;25.43;12.30;;;;;;;3.28;55.96;100912.22;5166442;27;20772;-62
2022/03/03 03:10:44;;;;;;;23.70;12.60;;;;;;;3.58;54.79;100919.19;5170970;27;20216;-62
2022/03/03 03:13:14;;;;;;;21.67;12.17;;;;;;;3.53;54.96;100921.22;5166601;27;20215;-62
2022/03/03 03:15:43;;;;;;;25.73;12.70;;;;;;;3.65;54.94;100923.13;5167206;27;20204;-64
2022/03/03 03:18:12;;;;;;;22.60;12.73;;;;;;;3.60;54.50;100919.94;5171023;27;20207;-63
2022/03/03 03:20:41;;;;;;;24.73;12.60;;;;;;;3.63;54.80;100919.75;5166631;27;20726;-61
2022/03/03 03:23:10;;;;;;;22.50;12.00;;;;;;;3.54;55.26;100920.28;5165786;27;20209;-62
2022/03/03 03:25:39;;;;;;;23.63;12.40;;;;;;;3.63;55.10;100917.13;5170585;27;20714;-62
2022/03/03 03:28:09;;;;;;;24.17;13.13;;;;;;;3.60;54.94;100907.69;5166884;27;20225;-61
2022/03/03 03:30:49;;;;;;;24.73;13.83;;;;;;;3.49;54.97;100906.63;5165131;27;20225;-60
2022/03/03 03:33:17;;;;;;;24.70;13.13;;;;;;;3.55;54.59;100895.75;5164657;27;20295;-62
2022/03/03 03:35:44;;;;;;;25.63;13.23;;;;;;;3.47;55.16;100905.88;5169651;27;20292;-61
2022/03/03 03:38:21;;;;;;;24.07;13.53;;;;;;;3.57;54.79;100894.75;5166354;27;20219;-62
2022/03/03 03:40:55;;;;;;;24.00;13.23;;;;;;;3.57;54.56;100901.78;5167169;27;20378;-62
2022/03/03 03:43:30;;;;;;;24.13;13.37;;;;;;;3.50;54.81;100887.34;5169099;27;20234;-62
2022/03/03 03:45:58;;;;;;;26.93;13.90;;;;;;;3.46;55.10;100888.47;5166022;27;20703;-61
2022/03/03 03:48:26;;;;;;;22.57;13.17;;;;;;;3.23;55.73;100872.34;5169103;27;20243;-61
2022/03/03 03:50:53;;;;;;;25.43;13.93;;;;;;;3.49;54.90;100883.03;5168796;27;20206;-61
2022/03/03 03:53:24;;;;;;;25.07;13.97;;;;;;;3.40;54.97;100884.44;5167003;27;20217;-62
2022/03/03 03:55:51;;;;;;;23.40;12.80;;;;;;;3.45;54.76;100886.75;5160955;27;20201;-62
2022/03/03 03:58:19;;;;;;;24.63;13.00;;;;;;;3.47;54.70;100890.16;5169716;27;20299;-62
2022/03/03 04:00:48;;;;;;;21.57;13.07;;;;;;;3.44;54.91;100896.41;5166655;27;20296;-62
2022/03/03 04:03:16;;;;;;;26.77;14.07;;;;;;;3.39;54.93;100888.00;5167537;27;20268;-63
2022/03/03 04:05:44;;;;;;;21.73;12.53;;;;;;;3.36;55.37;100891.63;5168048;27;20224;-62
2022/03/03 04:08:12;;;;;;;29.90;14.37;;;;;;;3.40;55.09;100893.16;5165866;27;20232;-62
2022/03/03 04:10:40;;;;;;;25.13;13.07;;;;;;;3.16;55.23;100892.00;5165011;27;20299;-62
2022/03/03 04:13:07;;;;;;;22.63;13.37;;;;;;;3.27;55.12;100889.56;5165976;27;20214;-61
2022/03/03 04:15:35;;;;;;;22.10;13.63;;;;;;;3.10;56.06;100894.97;5165209;27;20210;-62
2022/03/03 04:18:05;;;;;;;24.90;14.23;;;;;;;3.23;55.70;100885.44;5169874;27;20218;-62
2022/03/03 04:20:36;;;;;;;21.97;12.77;;;;;;;3.27;55.66;100884.31;5165087;27;20240;-62
2022/03/03 04:23:04;;;;;;;23.77;12.97;;;;;;;3.31;55.59;100885.84;5166244;27;20212;-62
2022/03/03 04:25:31;;;;;;;24.20;12.53;;;;;;;3.33;55.44;100893.59;5169925;27;20299;-61
2022/03/03 04:27:59;;;;;;;22.43;13.17;;;;;;;3.27;55.32;100879.06;5165565;27;20222;-61
2022/03/03 04:30:27;;;;;;;27.93;14.03;;;;;;;3.18;55.81;100879.63;5164180;27;20632;-61
2022/03/03 04:32:55;;;;;;;24.00;13.80;;;;;;;3.28;55.14;100880.75;5168340;27;20236;-61
2022/03/03 04:35:24;;;;;;;29.13;14.70;;;;;;;3.24;55.50;100874.03;5167924;27;20210;-61
2022/03/03 04:37:52;;;;;;;25.33;14.80;;;;;;;3.14;55.80;100867.66;5156216;27;20620;-61
2022/03/03 04:40:19;;;;;;;29.30;14.87;;;;;;;3.12;55.55;100859.03;5163719;27;20295;-62
2022/03/03 04:42:54;;;;;;;27.50;15.00;;;;;;;3.21;55.33;100861.09;5167415;27;20234;-61
2022/03/03 04:45:30;;;;;;;24.07;12.97;;;;;;;3.16;55.57;100865.78;5163005;27;20614;-62
2022/03/03 04:48:04;;;;;;;27.23;13.53;;;;;;;3.14;55.40;100866.81;5162334;27;20230;-62
2022/03/03 04:50:35;;;;;;;25.30;13.40;;;;;;;3.09;56.00;100877.53;5165310;27;20208;-62
2022/03/03 04:53:05;;;;;;;26.80;14.13;;;;;;;3.07;55.94;100871.56;5162288;27;20208;-62
2022/03/03 04:55:34;;;;;;;24.40;13.87;;;;;;;2.94;56.57;100875.84;5168958;27;20675;-61
2022/03/03 04:58:14;;;;;;;22.83;13.23;;;;;;;3.02;56.16;100884.94;5167367;27;20208;-61
2022/03/03 05:00:46;;;;;;;27.13;13.40;;;;;;;2.88;56.75;100891.91;5167717;27;20303;-61
2022/03/03 05:03:14;;;;;;;25.30;13.70;;;;;;;3.01;56.66;100887.63;5164530;27;20596;-63
2022/03/03 05:05:48;;;;;;;24.50;14.23;;;;;;;3.04;56.36;100890.09;5155853;27;20577;-62
2022/03/03 05:08:25;;;;;;;25.23;13.70;;;;;;;3.04;56.25;100887.47;5163465;27;20259;-63
2022/03/03 05:10:53;;;;;;;24.63;13.47;;;;;;;2.79;56.80;100882.81;5158402;27;20210;-62
2022/03/03 05:13:33;;;;;;;29.47;14.77;;;;;;;3.05;56.24;100870.81;5167986;27;20207;-62
2022/03/03 05:16:00;;;;;;;24.80;13.17;;;;;;;3.15;55.84;100873.72;5165448;27;20823;-61
2022/03/03 05:18:39;;;;;;;24.30;13.67;;;;;;;3.22;55.56;100872.44;5166209;27;20218;-61
2022/03/03 05:21:08;;;;;;;29.73;14.63;;;;;;;3.20;55.67;100866.44;5168349;27;20200;-61
2022/03/03 05:23:36;;;;;;;22.50;13.73;;;;;;;3.07;55.88;100871.56;5165024;27;20239;-61
2022/03/03 05:26:04;;;;;;;29.30;13.43;;;;;;;3.12;56.29;100868.66;5167460;27;20727;-61
2022/03/03 05:28:32;;;;;;;28.60;14.47;;;;;;;3.18;55.91;100865.66;5165554;27;20231;-63
2022/03/03 05:31:00;;;;;;;26.13;13.70;;;;;;;2.83;57.07;100852.88;5162634;27;20797;-61
2022/03/03 05:33:29;;;;;;;25.37;14.07;;;;;;;3.12;56.09;100845.94;5163661;27;20243;-63
2022/03/03 05:35:59;;;;;;;27.47;13.00;;;;;;;3.01;56.32;100836.06;5163520;27;20716;-61
2022/03/03 05:38:30;;;;;;;23.60;13.27;;;;;;;2.93;56.52;100829.59;5166033;27;20204;-60
2022/03/03 05:40:59;;;;;;;27.10;13.87;;;;;;;2.53;57.69;100829.31;5168075;27;20292;-61
2022/03/03 05:43:28;;;;;;;25.30;14.33;;;;;;;2.72;57.46;100823.88;5165244;27;20224;-62
2022/03/03 05:45:56;;;;;;;27.80;14.70;;;;;;;2.77;57.37;100823.59;5159550;27;20210;-61
2022/03/03 05:48:26;;;;;;;24.97;13.70;;;;;;;2.56;58.03;100816.03;5168388;27;20244;-62
2022/03/03 05:50:54;;;;;;;28.37;13.97;;;;;;;2.64;57.50;100816.44;5165748;27;20204;-62
2022/03/03 05:53:23;;;;;;;23.97;12.73;;;;;;;2.87;56.56;100812.50;5162894;27;20230;-62
2022/03/03 05:55:54;;;;;;;27.13;14.53;;;;;;;2.93;56.08;100811.28;5159578;27;20331;-62
2022/03/03 05:58:40;;;;;;;32.97;15.20;;;;;;;2.92;55.79;100801.72;5164793;27;20208;-62
2022/03/03 06:01:10;;;;;;;25.33;13.40;;;;;;;2.91;55.58;100794.78;5162935;27;20709;-62
2022/03/03 06:03:39;;;;;;;25.20;13.63;;;;;;;3.04;54.91;100795.75;5159920;27;20300;-62
2022/03/03 06:06:15;;;;;;;23.90;13.40;;;;;;;2.87;55.39;100809.03;5171134;27;20211;-61
2022/03/03 06:09:02;;;;;;;28.37;13.57;;;;;;;2.94;55.26;100826.91;5170939;27;20233;-60
2022/03/03 06:11:32;;;;;;;22.73;13.27;;;;;;;2.78;55.69;100830.53;5167032;27;20537;-62
2022/03/03 06:14:24;;;;;;;24.37;13.13;;;;;;;2.90;55.22;100838.47;5171393;27;20192;-62
2022/03/03 06:16:53;;;;;;;28.97;14.00;;;;;;;2.76;55.54;100835.00;5167970;27;20295;-63
2022/03/03 06:19:21;;;;;;;24.90;13.13;;;;;;;2.76;55.60;100840.22;5167365;27;20221;-62
2022/03/03 06:21:49;;;;;;;26.03;12.40;;;;;;;2.82;55.45;100845.94;5172109;27;20272;-63
2022/03/03 06:24:34;;;;;;;25.77;14.60;;;;;;;2.83;55.92;100841.56;5168591;27;20309;-61
2022/03/03 06:27:04;;;;;;;26.73;14.37;;;;;;;2.86;55.79;100844.84;5161512;27;20730;-63
2022/03/03 06:29:33;;;;;;;24.70;13.63;;;;;;;2.83;55.84;100846.78;5170222;27;20235;-63
2022/03/03 06:32:02;;;;;;;29.33;14.97;;;;;;;2.80;56.36;100852.22;5168026;27;20225;-62
2022/03/03 06:34:30;;;;;;;32.13;14.83;;;;;;;2.86;56.35;100860.56;5165763;27;20245;-62
2022/03/03 06:36:58;;;;;;;27.47;15.40;;;;;;;2.88;56.23;100865.72;5171530;27;20203;-63
2022/03/03 06:39:30;;;;;;;30.77;15.03;;;;;;;2.81;56.56;100874.88;5169659;27;20622;-62
2022/03/03 06:41:59;;;;;;;32.07;16.07;;;;;;;2.96;56.08;100879.22;5167444;27;20204;-62
2022/03/03 06:44:29;;;;;;;36.20;17.43;;;;;;;2.94;56.32;100868.81;5168028;27;20569;-62
2022/03/03 06:46:57;;;;;;;25.70;14.67;;;;;;;3.02;56.15;100860.50;5168678;27;20199;-63
2022/03/03 06:49:25;;;;;;;30.63;14.97;;;;;;;2.89;56.68;100870.03;5165471;27;20211;-64
2022/03/03 06:51:59;;;;;;;29.63;15.63;;;;;;;3.03;56.17;100864.81;5172066;27;20212;-63
2022/03/03 06:54:45;;;;;;;26.87;14.37;;;;;;;2.88;56.42;100852.63;5167578;27;20211;-62
2022/03/03 06:57:15;;;;;;;28.63;14.07;;;;;;;2.92;56.74;100851.50;5161979;27;20295;-62
2022/03/03 06:59:48;;;;;;;27.00;14.80;;;;;;;3.01;56.29;100849.19;5162886;27;20592;-62
2022/03/03 07:02:38;;;;;;;29.40;14.83;;;;;;;2.96;56.16;100848.63;5167952;27;20240;-62
2022/03/03 07:05:10;;;;;;;27.80;14.73;;;;;;;3.07;56.05;100855.00;5158093;27;20218;-62
2022/03/03 07:07:47;;;;;;;26.30;14.53;;;;;;;2.97;56.48;100854.72;5169201;27;20229;-62
2022/03/03 07:10:26;;;;;;;31.53;14.53;;;;;;;3.05;56.24;100855.09;5174769;27;20210;-63
2022/03/03 07:13:03;;;;;;;29.53;14.77;;;;;;;3.14;56.25;100856.31;5167023;27;20204;-62
2022/03/03 07:15:35;;;;;;;26.67;14.50;;;;;;;3.32;56.15;100860.47;5167913;27;20208;-63
2022/03/03 07:18:19;;;;;;;25.07;14.13;;;;;;;3.38;56.25;100860.94;5164642;27;20205;-62
2022/03/03 07:20:54;;;;;;;28.37;14.33;;;;;;;3.45;55.99;100860.53;5167067;27;20212;-61
2022/03/03 07:23:36;;;;;;;32.83;15.63;;;;;;;3.53;56.16;100856.53;5168974;27;20291;-62
2022/03/03 07:26:08;;;;;;;28.93;14.57;;;;;;;3.45;56.50;100855.31;5164242;27;20212;-62
2022/03/03 07:28:39;;;;;;;28.33;15.23;;;;;;;3.61;55.89;100850.81;5165511;27;20271;-62
2022/03/03 07:31:10;;;;;;;28.27;12.97;;;;;;;3.72;55.82;100856.22;5166514;27;20204;-61
2022/03/03 07:33:46;;;;;;;24.13;13.80;;;;;;;3.79;55.46;100865.41;5170244;27;20204;-62
2022/03/03 07:36:20;;;;;;;26.37;14.50;;;;;;;3.70;55.50;100860.72;5164010;27;20211;-63
2022/03/03 07:38:57;;;;;;;30.80;15.27;;;;;;;3.86;55.34;100860.63;5165637;27;20198;-63
2022/03/03 07:41:26;;;;;;;24.67;14.17;;;;;;;3.88;55.44;100879.72;5164013;27;20212;-62
2022/03/03 07:43:55;;;;;;;25.67;14.60;;;;;;;3.94;54.62;100866.25;5169766;27;20236;-62
2022/03/03 07:46:27;;;;;;;25.73;15.13;;;;;;;3.94;54.38;100863.63;5165308;27;20213;-62
2022/03/03 07:48:56;;;;;;;25.37;14.70;;;;;;;4.05;53.98;100856.75;5162997;27;20603;-62
2022/03/03 07:51:27;;;;;;;29.33;13.77;;;;;;;4.10;54.45;100859.09;5169180;27;20244;-63
2022/03/03 07:53:55;;;;;;;29.03;14.87;;;;;;;4.26;53.85;100861.56;5162221;27;20261;-62
2022/03/03 07:56:27;;;;;;;28.17;15.30;;;;;;;4.28;53.80;100863.16;5158920;27;20213;-62
2022/03/03 07:59:01;;;;;;;25.63;14.00;;;;;;;4.15;53.63;100865.72;5168850;27;20196;-62
2022/03/03 08:01:31;;;;;;;26.80;14.57;;;;;;;4.08;54.27;100860.97;5167314;27;20228;-63
2022/03/03 08:04:01;;;;;;;24.63;14.50;;;;;;;4.25;54.06;100873.84;5169788;27;20674;-64
2022/03/03 08:06:30;;;;;;;25.50;13.30;;;;;;;4.28;54.21;100865.78;5165997;27;20212;-63
2022/03/03 08:09:00;;;;;;;25.17;14.90;;;;;;;4.28;54.51;100863.16;5166506;27;20230;-63
2022/03/03 08:11:40;;;;;;;29.80;15.20;;;;;;;4.61;53.60;100859.28;5161477;27;20218;-63
2022/03/03 08:14:13;;;;;;;25.13;14.43;;;;;;;4.77;53.40;100866.06;5168402;27;20287;-63
2022/03/03 08:16:48;;;;;;;26.83;14.73;;;;;;;5.33;51.83;100866.66;5165168;27;20211;-62
2022/03/03 08:19:17;;;;;;;28.80;16.07;;;;;;;5.04;52.25;100873.03;5168554;27;20561;-63
2022/03/03 08:21:45;;;;;;;26.77;15.27;;;;;;;4.78;53.06;100867.75;5168789;27;20226;-62
2022/03/03 08:24:16;;;;;;;26.63;14.67;;;;;;;5.51;52.00;100862.78;5165789;27;20654;-63
2022/03/03 08:26:47;;;;;;;30.17;14.93;;;;;;;7.67;46.93;100851.16;5168247;27;20210;-62
2022/03/03 08:29:24;;;;;;;24.67;14.10;;;;;;;8.66;44.20;100858.06;5166582;27;20244;-63
2022/03/03 08:31:57;;;;;;;25.97;14.73;;;;;;;7.44;46.20;100859.06;5167246;27;20217;-62
2022/03/03 08:34:34;;;;;;;31.50;16.60;;;;;;;6.69;47.82;100865.69;5166511;27;20211;-63
2022/03/03 08:37:28;;;;;;;24.83;14.73;;;;;;;6.18;49.57;100867.72;5168460;27;20248;-62
2022/03/03 08:40:00;;;;;;;28.57;16.50;;;;;;;6.61;49.01;100865.44;5162838;27;20296;-63
2022/03/03 08:42:34;;;;;;;27.73;14.97;;;;;;;7.84;45.94;100848.88;5164284;27;20239;-63
2022/03/03 08:45:04;;;;;;;24.87;16.40;;;;;;;7.15;47.29;100848.09;5168455;27;20243;-63
2022/03/03 08:47:34;;;;;;;27.60;15.30;;;;;;;7.23;47.22;100862.50;5165316;27;20252;-63
2022/03/03 08:50:08;;;;;;;30.57;16.33;;;;;;;11.34;40.19;100852.91;5165888;27;20233;-63
2022/03/03 08:52:53;;;;;;;28.37;16.67;;;;;;;14.42;33.69;100863.63;5155090;27;20290;-63
2022/03/03 08:55:21;;;;;;;26.20;16.20;;;;;;;15.23;31.56;100866.31;5163181;27;20294;-62
2022/03/03 08:58:00;;;;;;;;;;;;;;;;;;;;;
2022/03/03 09:00:30;;;;;;;23.73;15.73;;;;;;;15.52;31.06;100876.47;5155132;27;20585;-63
2022/03/03 09:03:01;;;;;;;23.07;16.00;;;;;;;13.87;33.92;100874.72;5164163;27;20207;-63
2022/03/03 09:05:31;;;;;;;24.20;17.20;;;;;;;14.85;32.97;100865.16;5164638;27;20212;-63
2022/03/03 09:07:58;;;;;;;23.97;16.40;;;;;;;17.04;29.50;100863.53;5168006;27;20649;-64
2022/03/03 09:10:28;;;;;;;24.93;16.53;;;;;;;15.14;31.50;100869.16;5163159;27;20314;-64
2022/03/03 09:13:01;;;;;;;33.90;16.73;;;;;;;16.69;29.80;100871.16;5163528;27;20287;-63
2022/03/03 09:15:30;;;;;;;25.33;17.47;;;;;;;18.05;28.41;100866.50;5168763;27;20216;-63
2022/03/03 09:17:59;;;;;;;22.43;16.87;;;;;;;22.60;23.30;100858.25;5167103;27;20258;-63
2022/03/03 09:20:30;;;;;;;22.57;16.63;;;;;;;20.87;24.06;100860.66;5162925;27;20701;-63
2022/03/03 09:23:00;;;;;;;25.93;17.60;;;;;;;16.04;29.96;100867.97;5162772;27;20199;-63
2022/03/03 09:25:36;;;;;;;24.57;17.03;;;;;;;14.53;32.51;100863.28;5167684;27;20261;-63
2022/03/03 09:28:04;;;;;;;22.87;17.57;;;;;;;16.96;29.29;100847.53;5165128;27;20361;-63
2022/03/03 09:30:32;;;;;;;24.77;16.63;;;;;;;19.70;25.58;100839.31;5166987;27;20649;-63
2022/03/03 09:33:02;;;;;;;22.43;16.63;;;;;;;15.31;30.79;100838.75;5165230;27;20200;-64
2022/03/03 09:35:30;;;;;;;23.60;17.10;;;;;;;17.15;29.42;100841.66;5164742;27;20657;-64
2022/03/03 09:37:58;;;;;;;22.63;16.77;;;;;;;20.18;25.04;100828.56;5166428;27;20209;-64
2022/03/03 09:40:26;;;;;;;19.25;16.95;;;;;;;22.60;22.75;100833.91;5166591;27;20200;-64
2022/03/03 09:42:59;;;;;;;20.60;16.15;;;;;;;22.37;22.36;100822.81;5163380;27;20232;-64
2022/03/03 09:45:27;;;;;;;21.23;16.02;;;;;;;20.14;24.63;100828.13;5166831;27;20295;-62
2022/03/03 09:48:00;;;;;;;21.63;16.23;;;;;;;20.97;23.77;100821.50;5161399;27;20228;-63
2022/03/03 09:50:34;;;;;;;20.05;16.20;;;;;;;21.12;23.49;100815.88;5157890;27;20842;-63
2022/03/03 09:53:06;;;;;;;19.45;15.90;;;;;;;19.50;25.14;100816.88;5168416;27;20561;-63
2022/03/03 09:55:34;;;;;;;21.10;15.95;;;;;;;20.25;25.27;100818.66;5165925;27;20298;-64
2022/03/03 09:58:02;;;;;;;24.63;16.80;;;;;;;21.73;23.23;100807.47;5165186;27;20212;-64
2022/03/03 10:00:33;;;;;;;20.10;17.00;;;;;;;23.21;21.96;100814.31;5167070;27;20219;-63
2022/03/03 10:03:08;;;;;;;21.15;16.50;;;;;;;19.29;25.23;100816.91;5167436;27;20252;-64
2022/03/03 10:05:42;;;;;;;20.42;16.48;;;;;;;21.12;23.91;100804.25;5166028;27;20217;-64
2022/03/03 10:08:12;;;;;;;19.35;16.02;;;;;;;20.77;23.79;100800.94;5168113;27;20232;-64
2022/03/03 10:10:56;;;;;;;21.00;16.40;;;;;;;21.34;23.78;100803.03;5166716;27;20676;-63
2022/03/03 10:13:24;;;;;;;18.35;16.15;;;;;;;24.14;20.62;100801.41;5165739;27;20264;-64
2022/03/03 10:15:54;;;;;;;19.92;16.25;;;;;;;22.47;22.45;100804.25;5163176;27;20224;-64
2022/03/03 10:18:28;;;;;;;18.65;15.65;;;;;;;23.57;21.01;100794.63;5166812;27;20565;-64
2022/03/03 10:21:12;;;;;;;19.60;15.93;;;;;;;18.04;26.84;100806.63;5161451;27;20212;-63
2022/03/03 10:23:40;;;;;;;22.90;16.48;;;;;;;17.42;28.04;100806.19;5166899;27;20905;-64
2022/03/03 10:26:56;;;;;;;20.63;16.10;;;;;;;19.92;26.07;100800.53;5166308;27;20817;-64
2022/03/03 10:29:24;;;;;;;19.15;15.57;;;;;;;22.96;22.22;100797.25;5166113;27;20622;-64
2022/03/03 10:31:55;;;;;;;18.10;16.20;;;;;;;23.03;21.93;100793.47;5166172;27;20648;-64
2022/03/03 10:34:26;;;;;;;19.25;16.95;;;;;;;22.55;22.36;100793.19;5163986;27;20210;-64
2022/03/03 10:37:20;;;;;;;21.48;16.77;;;;;;;22.07;22.73;100788.28;5166846;27;20676;-65
2022/03/03 10:39:50;;;;;;;23.90;15.35;;;;;;;19.13;25.50;100780.41;5162292;27;20556;-64
2022/03/03 10:42:19;;;;;;;22.17;15.65;;;;;;;23.43;21.43;100776.81;5168139;27;20232;-63
2022/03/03 10:44:50;;;;;;;22.27;17.75;;;;;;;26.09;18.91;100765.88;5156472;27;20223;-64
2022/03/03 10:47:21;;;;;;;25.67;17.23;;;;;;;24.34;20.68;100757.78;5164812;27;20283;-64
2022/03/03 10:50:00;;;;;;;23.15;16.30;;;;;;;25.03;20.13;100746.25;5165432;27;20720;-64
2022/03/03 10:52:40;;;;;;;23.70;17.05;;;;;;;24.19;20.56;100750.03;5172708;27;20505;-65
2022/03/03 10:55:20;;;;;;;18.45;16.45;;;;;;;18.15;26.51;100754.31;5169059;27;20219;-64
2022/03/03 10:57:57;;;;;;;19.77;16.33;;;;;;;21.26;23.48;100743.94;5167429;27;20204;-64
2022/03/03 11:00:26;;;;;;;20.10;15.63;;;;;;;21.57;23.44;100746.72;5165834;27;20196;-64
2022/03/03 11:03:01;;;;;;;17.73;15.57;;;;;;;19.30;25.30;100746.81;5166770;27;20487;-64
2022/03/03 11:05:31;;;;;;;22.27;16.05;;;;;;;19.75;25.27;100748.09;5165450;27;20216;-62
2022/03/03 11:08:00;;;;;;;18.33;15.52;;;;;;;17.03;27.75;100750.16;5172871;27;20234;-63
2022/03/03 11:10:31;;;;;;;17.02;15.20;;;;;;;14.96;30.35;100749.16;5168067;27;20227;-64
2022/03/03 11:12:59;;;;;;;19.58;16.17;;;;;;;15.55;29.54;100752.38;5167939;27;20219;-64
2022/03/03 11:15:28;;;;;;;21.60;15.88;;;;;;;13.92;32.17;100755.09;5171249;27;20240;-63
2022/03/03 11:17:57;;;;;;;18.20;15.43;;;;;;;13.61;33.47;100750.50;5166649;27;20645;-64
2022/03/03 11:20:25;;;;;;;17.58;15.50;;;;;;;14.20;33.29;100757.47;5168323;27;20204;-64
2022/03/03 11:22:55;;;;;;;18.48;16.25;;;;;;;15.42;31.37;100739.53;5171601;27;20248;-64
2022/03/03 11:25:30;;;;;;;21.60;16.52;;;;;;;17.01;28.91;100744.16;5166762;27;20327;-64
2022/03/03 11:28:03;;;;;;;19.05;15.93;;;;;;;17.26;28.85;100747.41;5158520;27;20255;-64
2022/03/03 11:30:32;;;;;;;17.73;15.82;;;;;;;18.51;27.00;100756.94;5164027;27;20649;-63
2022/03/03 11:33:20;;;;;;;22.17;14.68;;;;;;;17.05;29.25;100750.81;5166237;27;20259;-63
2022/03/03 11:35:49;;;;;;;18.05;15.23;;;;;;;16.91;28.60;100744.41;5166690;27;20208;-63
2022/03/03 11:38:17;;;;;;;24.77;15.45;;;;;;;16.40;30.13;100734.47;5169286;27;20712;-63